sensor_id;sensor_type;location;lat;lon;timestamp;P1;durP1;ratioP1;P2;durP2;ratioP2
21731;SDS011;11028;51.156;17.130;2023-02-28T00:16:02;41.90;;;18.15;;
21731;SDS011;11028;51.156;17.130;2023-02-28T00:23:21;44.55;;;17.60;;
21731;SDS011;11028;51.156;17.130;2023-02-28T00:30:40;44.42;;;19.23;;
21731;SDS011;11028;51.156;17.130;2023-02-28T00:47:22;46.85;;;19.15;;
21731;SDS011;11028;51.156;17.130;2023-02-28T00:54:40;44.97;;;19.10;;
21731;SDS011;11028;51.156;17.130;2023-02-28T01:01:58;43.05;;;18.52;;
21731;SDS011;11028;51.156;17.130;2023-02-28T01:09:18;45.95;;;19.65;;
21731;SDS011;11028;51.156;17.130;2023-02-28T01:16:36;45.28;;;18.83;;
21731;SDS011;11028;51.156;17.130;2023-02-28T01:23:55;49.60;;;21.38;;
21731;SDS011;11028;51.156;17.130;2023-02-28T01:31:16;44.40;;;21.63;;
21731;SDS011;11028;51.156;17.130;2023-02-28T01:48:09;44.72;;;19.55;;
21731;SDS011;11028;51.156;17.130;2023-02-28T01:55:29;36.72;;;17.70;;
21731;SDS011;11028;51.156;17.130;2023-02-28T02:02:49;36.30;;;16.63;;
21731;SDS011;11028;51.156;17.130;2023-02-28T02:10:12;35.72;;;16.05;;
21731;SDS011;11028;51.156;17.130;2023-02-28T02:17:34;46.17;;;17.70;;
21731;SDS011;11028;51.156;17.130;2023-02-28T02:25:02;47.17;;;17.40;;
21731;SDS011;11028;51.156;17.130;2023-02-28T02:40:37;42.28;;;17.45;;
21731;SDS011;11028;51.156;17.130;2023-02-28T02:47:58;43.13;;;17.58;;
21731;SDS011;11028;51.156;17.130;2023-02-28T03:03:47;39.22;;;18.40;;
21731;SDS011;11028;51.156;17.130;2023-02-28T03:11:06;43.47;;;18.85;;
21731;SDS011;11028;51.156;17.130;2023-02-28T03:18:32;41.85;;;19.30;;
21731;SDS011;11028;51.156;17.130;2023-02-28T03:25:58;48.60;;;20.35;;
21731;SDS011;11028;51.156;17.130;2023-02-28T03:33:20;47.92;;;20.25;;
21731;SDS011;11028;51.156;17.130;2023-02-28T03:40:41;45.97;;;18.80;;
21731;SDS011;11028;51.156;17.130;2023-02-28T03:48:05;49.80;;;20.40;;
21731;SDS011;11028;51.156;17.130;2023-02-28T03:55:27;38.83;;;18.52;;
21731;SDS011;11028;51.156;17.130;2023-02-28T04:02:46;46.35;;;20.85;;
21731;SDS011;11028;51.156;17.130;2023-02-28T04:10:11;41.77;;;20.57;;
21731;SDS011;11028;51.156;17.130;2023-02-28T04:17:30;57.38;;;25.17;;
21731;SDS011;11028;51.156;17.130;2023-02-28T04:24:48;48.33;;;22.38;;
21731;SDS011;11028;51.156;17.130;2023-02-28T04:32:08;56.30;;;21.13;;
21731;SDS011;11028;51.156;17.130;2023-02-28T04:39:26;42.75;;;19.17;;
21731;SDS011;11028;51.156;17.130;2023-02-28T04:46:44;45.35;;;17.63;;
21731;SDS011;11028;51.156;17.130;2023-02-28T04:54:04;34.13;;;16.33;;
21731;SDS011;11028;51.156;17.130;2023-02-28T05:01:23;30.13;;;14.43;;
21731;SDS011;11028;51.156;17.130;2023-02-28T05:18:17;33.45;;;14.68;;
21731;SDS011;11028;51.156;17.130;2023-02-28T05:25:35;27.05;;;14.18;;
21731;SDS011;11028;51.156;17.130;2023-02-28T05:32:53;26.33;;;13.07;;
21731;SDS011;11028;51.156;17.130;2023-02-28T05:40:13;34.83;;;14.82;;
21731;SDS011;11028;51.156;17.130;2023-02-28T05:47:32;36.97;;;15.27;;
21731;SDS011;11028;51.156;17.130;2023-02-28T05:54:50;43.45;;;18.48;;
21731;SDS011;11028;51.156;17.130;2023-02-28T06:02:10;43.80;;;18.77;;
21731;SDS011;11028;51.156;17.130;2023-02-28T06:09:30;42.08;;;18.08;;
21731;SDS011;11028;51.156;17.130;2023-02-28T06:16:48;42.42;;;17.15;;
21731;SDS011;11028;51.156;17.130;2023-02-28T06:24:08;25.73;;;13.65;;
21731;SDS011;11028;51.156;17.130;2023-02-28T06:31:27;34.55;;;14.27;;
21731;SDS011;11028;51.156;17.130;2023-02-28T06:47:58;20.33;;;10.20;;
21731;SDS011;11028;51.156;17.130;2023-02-28T06:55:17;18.65;;;9.27;;
21731;SDS011;11028;51.156;17.130;2023-02-28T07:02:35;22.90;;;10.20;;
21731;SDS011;11028;51.156;17.130;2023-02-28T07:09:56;19.15;;;11.13;;
21731;SDS011;11028;51.156;17.130;2023-02-28T07:17:14;24.08;;;11.35;;
21731;SDS011;11028;51.156;17.130;2023-02-28T07:24:32;27.80;;;11.85;;
21731;SDS011;11028;51.156;17.130;2023-02-28T07:31:52;16.50;;;8.35;;
21731;SDS011;11028;51.156;17.130;2023-02-28T07:39:10;20.55;;;10.38;;
21731;SDS011;11028;51.156;17.130;2023-02-28T07:46:29;19.50;;;10.13;;
21731;SDS011;11028;51.156;17.130;2023-02-28T07:53:54;20.80;;;9.93;;
21731;SDS011;11028;51.156;17.130;2023-02-28T08:01:12;18.75;;;9.82;;
21731;SDS011;11028;51.156;17.130;2023-02-28T08:08:31;20.13;;;9.73;;
21731;SDS011;11028;51.156;17.130;2023-02-28T08:15:51;16.20;;;7.60;;
21731;SDS011;11028;51.156;17.130;2023-02-28T08:23:10;15.75;;;8.98;;
21731;SDS011;11028;51.156;17.130;2023-02-28T08:30:38;18.13;;;8.88;;
21731;SDS011;11028;51.156;17.130;2023-02-28T08:37:59;20.40;;;7.80;;
21731;SDS011;11028;51.156;17.130;2023-02-28T08:45:17;14.43;;;7.88;;
21731;SDS011;11028;51.156;17.130;2023-02-28T08:52:36;13.45;;;7.30;;
21731;SDS011;11028;51.156;17.130;2023-02-28T08:59:56;12.30;;;6.35;;
21731;SDS011;11028;51.156;17.130;2023-02-28T09:07:14;12.85;;;6.47;;
21731;SDS011;11028;51.156;17.130;2023-02-28T09:14:32;16.70;;;7.43;;
21731;SDS011;11028;51.156;17.130;2023-02-28T09:21:52;14.20;;;7.20;;
21731;SDS011;11028;51.156;17.130;2023-02-28T09:29:10;11.60;;;7.85;;
21731;SDS011;11028;51.156;17.130;2023-02-28T09:36:28;14.65;;;6.72;;
21731;SDS011;11028;51.156;17.130;2023-02-28T09:44:02;14.23;;;7.97;;
21731;SDS011;11028;51.156;17.130;2023-02-28T09:51:30;14.35;;;8.15;;
21731;SDS011;11028;51.156;17.130;2023-02-28T09:58:54;13.05;;;7.68;;
21731;SDS011;11028;51.156;17.130;2023-02-28T10:06:17;14.90;;;7.10;;
21731;SDS011;11028;51.156;17.130;2023-02-28T10:13:48;9.75;;;5.65;;
21731;SDS011;11028;51.156;17.130;2023-02-28T10:21:13;10.70;;;5.50;;
21731;SDS011;11028;51.156;17.130;2023-02-28T10:28:37;9.93;;;5.18;;
21731;SDS011;11028;51.156;17.130;2023-02-28T10:35:56;12.88;;;5.35;;
21731;SDS011;11028;51.156;17.130;2023-02-28T10:43:19;11.85;;;6.25;;
21731;SDS011;11028;51.156;17.130;2023-02-28T10:50:42;11.52;;;6.88;;
21731;SDS011;11028;51.156;17.130;2023-02-28T10:58:01;12.48;;;6.43;;
21731;SDS011;11028;51.156;17.130;2023-02-28T11:05:28;12.80;;;6.43;;
21731;SDS011;11028;51.156;17.130;2023-02-28T11:12:47;34.97;;;19.10;;
21731;SDS011;11028;51.156;17.130;2023-02-28T11:20:18;16.63;;;9.15;;
21731;SDS011;11028;51.156;17.130;2023-02-28T11:27:44;20.10;;;9.30;;
21731;SDS011;11028;51.156;17.130;2023-02-28T11:35:14;21.25;;;9.85;;
21731;SDS011;11028;51.156;17.130;2023-02-28T11:42:39;21.35;;;11.70;;
21731;SDS011;11028;51.156;17.130;2023-02-28T11:50:11;17.52;;;8.98;;
21731;SDS011;11028;51.156;17.130;2023-02-28T11:57:39;28.25;;;13.95;;
21731;SDS011;11028;51.156;17.130;2023-02-28T12:05:23;14.02;;;8.52;;
21731;SDS011;11028;51.156;17.130;2023-02-28T12:12:44;16.73;;;9.27;;
21731;SDS011;11028;51.156;17.130;2023-02-28T12:20:12;14.93;;;8.67;;
21731;SDS011;11028;51.156;17.130;2023-02-28T12:27:37;16.23;;;8.00;;
21731;SDS011;11028;51.156;17.130;2023-02-28T12:34:57;15.95;;;9.35;;
21731;SDS011;11028;51.156;17.130;2023-02-28T12:42:22;12.82;;;7.50;;
21731;SDS011;11028;51.156;17.130;2023-02-28T12:49:44;19.42;;;9.18;;
21731;SDS011;11028;51.156;17.130;2023-02-28T12:57:06;19.10;;;10.15;;
21731;SDS011;11028;51.156;17.130;2023-02-28T13:04:43;24.48;;;11.32;;
21731;SDS011;11028;51.156;17.130;2023-02-28T13:12:12;21.65;;;10.77;;
21731;SDS011;11028;51.156;17.130;2023-02-28T13:19:31;23.48;;;12.43;;
21731;SDS011;11028;51.156;17.130;2023-02-28T13:34:41;23.13;;;11.25;;
21731;SDS011;11028;51.156;17.130;2023-02-28T13:42:07;19.10;;;10.85;;
21731;SDS011;11028;51.156;17.130;2023-02-28T13:49:51;22.20;;;11.63;;
21731;SDS011;11028;51.156;17.130;2023-02-28T13:57:12;19.25;;;9.75;;
21731;SDS011;11028;51.156;17.130;2023-02-28T14:04:48;20.30;;;10.52;;
21731;SDS011;11028;51.156;17.130;2023-02-28T14:21:50;17.77;;;8.48;;
21731;SDS011;11028;51.156;17.130;2023-02-28T14:37:13;17.17;;;8.45;;
21731;SDS011;11028;51.156;17.130;2023-02-28T14:44:35;17.05;;;9.52;;
21731;SDS011;11028;51.156;17.130;2023-02-28T14:52:01;22.25;;;9.30;;
21731;SDS011;11028;51.156;17.130;2023-02-28T14:59:39;15.05;;;8.70;;
21731;SDS011;11028;51.156;17.130;2023-02-28T15:07:07;17.73;;;8.40;;
21731;SDS011;11028;51.156;17.130;2023-02-28T15:23:03;19.58;;;8.05;;
21731;SDS011;11028;51.156;17.130;2023-02-28T15:30:34;17.33;;;7.78;;
21731;SDS011;11028;51.156;17.130;2023-02-28T15:37:54;13.65;;;7.90;;
21731;SDS011;11028;51.156;17.130;2023-02-28T15:45:33;13.68;;;7.63;;
21731;SDS011;11028;51.156;17.130;2023-02-28T15:52:55;13.90;;;7.75;;
21731;SDS011;11028;51.156;17.130;2023-02-28T16:00:19;17.55;;;8.10;;
21731;SDS011;11028;51.156;17.130;2023-02-28T16:07:40;15.82;;;8.90;;
21731;SDS011;11028;51.156;17.130;2023-02-28T16:15:17;22.45;;;11.20;;
21731;SDS011;11028;51.156;17.130;2023-02-28T16:22:37;20.05;;;11.45;;
21731;SDS011;11028;51.156;17.130;2023-02-28T16:29:56;21.42;;;11.85;;
21731;SDS011;11028;51.156;17.130;2023-02-28T16:37:15;21.80;;;12.02;;
21731;SDS011;11028;51.156;17.130;2023-02-28T16:44:35;22.02;;;12.45;;
21731;SDS011;11028;51.156;17.130;2023-02-28T16:51:55;26.40;;;13.10;;
21731;SDS011;11028;51.156;17.130;2023-02-28T16:59:13;30.08;;;15.27;;
21731;SDS011;11028;51.156;17.130;2023-02-28T17:06:33;33.08;;;15.48;;
21731;SDS011;11028;51.156;17.130;2023-02-28T17:22:43;37.10;;;19.05;;
21731;SDS011;11028;51.156;17.130;2023-02-28T17:30:02;38.63;;;19.27;;
21731;SDS011;11028;51.156;17.130;2023-02-28T17:37:21;37.75;;;18.25;;
21731;SDS011;11028;51.156;17.130;2023-02-28T17:44:41;41.05;;;18.50;;
21731;SDS011;11028;51.156;17.130;2023-02-28T17:51:59;53.05;;;27.30;;
21731;SDS011;11028;51.156;17.130;2023-02-28T17:59:18;54.72;;;26.10;;
21731;SDS011;11028;51.156;17.130;2023-02-28T18:06:43;47.38;;;21.25;;
21731;SDS011;11028;51.156;17.130;2023-02-28T18:22:41;47.17;;;20.40;;
21731;SDS011;11028;51.156;17.130;2023-02-28T18:30:00;53.10;;;24.60;;
21731;SDS011;11028;51.156;17.130;2023-02-28T18:37:21;53.28;;;22.65;;
21731;SDS011;11028;51.156;17.130;2023-02-28T18:44:41;45.65;;;20.90;;
21731;SDS011;11028;51.156;17.130;2023-02-28T18:52:00;45.67;;;21.55;;
21731;SDS011;11028;51.156;17.130;2023-02-28T18:59:25;53.53;;;21.35;;
21731;SDS011;11028;51.156;17.130;2023-02-28T19:06:46;54.25;;;22.42;;
21731;SDS011;11028;51.156;17.130;2023-02-28T19:22:37;57.47;;;24.63;;
21731;SDS011;11028;51.156;17.130;2023-02-28T19:30:00;55.42;;;25.27;;
21731;SDS011;11028;51.156;17.130;2023-02-28T19:37:25;72.03;;;30.55;;
21731;SDS011;11028;51.156;17.130;2023-02-28T19:44:48;78.40;;;30.65;;
21731;SDS011;11028;51.156;17.130;2023-02-28T19:52:08;61.83;;;27.80;;
21731;SDS011;11028;51.156;17.130;2023-02-28T19:59:31;68.95;;;29.48;;
21731;SDS011;11028;51.156;17.130;2023-02-28T20:06:57;69.32;;;29.60;;
21731;SDS011;11028;51.156;17.130;2023-02-28T20:22:37;69.47;;;29.33;;
21731;SDS011;11028;51.156;17.130;2023-02-28T20:29:55;53.20;;;25.02;;
21731;SDS011;11028;51.156;17.130;2023-02-28T20:37:14;61.40;;;25.20;;
21731;SDS011;11028;51.156;17.130;2023-02-28T20:44:33;64.97;;;27.92;;
21731;SDS011;11028;51.156;17.130;2023-02-28T20:51:52;58.20;;;26.10;;
21731;SDS011;11028;51.156;17.130;2023-02-28T20:59:10;68.22;;;30.10;;
21731;SDS011;11028;51.156;17.130;2023-02-28T21:06:31;72.15;;;32.35;;
21731;SDS011;11028;51.156;17.130;2023-02-28T21:22:43;79.28;;;32.67;;
21731;SDS011;11028;51.156;17.130;2023-02-28T21:30:01;99.63;;;36.60;;
21731;SDS011;11028;51.156;17.130;2023-02-28T21:37:21;82.85;;;34.88;;
21731;SDS011;11028;51.156;17.130;2023-02-28T21:44:40;98.90;;;37.83;;
21731;SDS011;11028;51.156;17.130;2023-02-28T21:51:58;94.57;;;37.83;;
21731;SDS011;11028;51.156;17.130;2023-02-28T21:59:17;88.78;;;34.22;;
21731;SDS011;11028;51.156;17.130;2023-02-28T22:06:37;93.95;;;37.15;;
21731;SDS011;11028;51.156;17.130;2023-02-28T22:22:34;130.95;;;52.65;;
21731;SDS011;11028;51.156;17.130;2023-02-28T22:29:53;118.40;;;52.08;;
21731;SDS011;11028;51.156;17.130;2023-02-28T22:37:11;70.40;;;30.77;;
21731;SDS011;11028;51.156;17.130;2023-02-28T22:44:31;82.50;;;33.63;;
21731;SDS011;11028;51.156;17.130;2023-02-28T22:51:49;71.32;;;31.52;;
21731;SDS011;11028;51.156;17.130;2023-02-28T22:59:09;74.93;;;33.03;;
21731;SDS011;11028;51.156;17.130;2023-02-28T23:06:32;75.53;;;32.78;;
21731;SDS011;11028;51.156;17.130;2023-02-28T23:13:54;87.28;;;34.95;;
21731;SDS011;11028;51.156;17.130;2023-02-28T23:22:16;82.05;;;33.85;;
21731;SDS011;11028;51.156;17.130;2023-02-28T23:29:35;94.00;;;36.47;;
21731;SDS011;11028;51.156;17.130;2023-02-28T23:36:53;96.43;;;40.22;;
21731;SDS011;11028;51.156;17.130;2023-02-28T23:44:13;106.65;;;44.83;;
21731;SDS011;11028;51.156;17.130;2023-02-28T23:51:32;104.45;;;43.50;;
21731;SDS011;11028;51.156;17.130;2023-02-28T23:58:50;129.00;;;47.92;;
